createdAt,value
2017-08-27T00:00:59.339Z,10.70
2017-08-27T00:03:25.780Z,11.23
2017-08-27T00:05:52.142Z,10.40
2017-08-27T00:08:18.789Z,10.90
2017-08-27T00:10:45.130Z,9.83
2017-08-27T00:13:11.720Z,9.87
2017-08-27T00:15:38.261Z,11.60
2017-08-27T00:18:04.933Z,9.27
2017-08-27T00:20:31.396Z,11.60
2017-08-27T00:22:57.866Z,9.90
2017-08-27T00:25:24.404Z,9.73
2017-08-27T00:27:51.022Z,11.40
2017-08-27T00:30:17.507Z,9.57
2017-08-27T00:32:43.940Z,9.70
2017-08-27T00:35:10.558Z,9.73
2017-08-27T00:37:37.217Z,9.27
2017-08-27T00:40:03.651Z,10.10
2017-08-27T00:42:30.290Z,9.10
2017-08-27T00:44:56.794Z,9.30
2017-08-27T00:47:23.309Z,10.10
2017-08-27T00:49:49.795Z,8.67
2017-08-27T00:52:16.427Z,9.10
2017-08-27T00:54:43.059Z,9.47
2017-08-27T00:57:09.676Z,10.10
2017-08-27T00:59:36.348Z,10.43
2017-08-27T01:02:02.779Z,8.73
2017-08-27T01:04:29.418Z,9.57
2017-08-27T01:06:56.053Z,9.60
2017-08-27T01:09:22.566Z,8.93
2017-08-27T01:11:49.129Z,7.87
2017-08-27T01:14:15.765Z,9.40
2017-08-27T01:16:42.385Z,9.30
2017-08-27T01:19:08.836Z,10.20
2017-08-27T01:21:35.446Z,10.07
2017-08-27T01:24:01.907Z,9.33
2017-08-27T01:26:28.504Z,10.70
2017-08-27T01:28:55.185Z,10.50
2017-08-27T01:31:21.691Z,10.97
2017-08-27T01:33:48.460Z,8.70
2017-08-27T01:36:14.916Z,8.90
2017-08-27T01:38:41.513Z,9.80
2017-08-27T01:41:08.131Z,11.03
2017-08-27T01:43:34.609Z,9.60
2017-08-27T01:46:01.092Z,10.10
2017-08-27T01:48:27.880Z,11.10
2017-08-27T01:50:54.518Z,10.33
2017-08-27T01:53:20.956Z,10.03
2017-08-27T01:55:47.591Z,9.30
2017-08-27T01:58:14.200Z,10.80
2017-08-27T02:00:40.872Z,10.27
2017-08-27T02:03:07.505Z,9.33
2017-08-27T02:05:34.126Z,10.00
2017-08-27T02:08:00.575Z,9.70
2017-08-27T02:10:27.179Z,10.10
2017-08-27T02:12:53.651Z,10.80
2017-08-27T02:15:20.287Z,10.37
2017-08-27T02:17:46.719Z,9.93
2017-08-27T02:20:13.147Z,10.20
2017-08-27T02:22:39.789Z,9.67
2017-08-27T02:25:06.429Z,9.87
2017-08-27T02:27:33.054Z,11.50
2017-08-27T02:29:59.504Z,11.23
2017-08-27T02:32:25.929Z,10.80
2017-08-27T02:34:52.248Z,10.10
2017-08-27T02:37:18.564Z,9.50
2017-08-27T02:39:44.939Z,12.20
2017-08-27T02:42:11.242Z,10.17
2017-08-27T02:44:37.541Z,11.87
2017-08-27T02:47:03.901Z,14.47
2017-08-27T02:49:30.223Z,9.90
2017-08-27T02:51:56.515Z,9.83
2017-08-27T02:54:22.897Z,10.40
2017-08-27T02:56:49.218Z,10.07
2017-08-27T02:59:15.540Z,10.37
2017-08-27T03:01:41.899Z,9.23
2017-08-27T03:04:08.231Z,9.77
2017-08-27T03:06:34.541Z,9.77
2017-08-27T03:09:01.230Z,10.60
2017-08-27T03:11:27.569Z,9.20
2017-08-27T03:13:53.884Z,10.47
2017-08-27T03:16:20.239Z,12.13
2017-08-27T03:18:46.555Z,11.17
2017-08-27T03:21:12.875Z,10.57
2017-08-27T03:23:39.254Z,12.60
2017-08-27T03:26:05.549Z,14.23
2017-08-27T03:28:31.854Z,15.17
2017-08-27T03:30:58.209Z,14.20
2017-08-27T03:33:24.513Z,16.40
2017-08-27T03:35:50.834Z,19.23
2017-08-27T03:38:17.196Z,17.77
2017-08-27T03:40:43.494Z,17.20
2017-08-27T03:43:10.041Z,15.97
2017-08-27T03:45:36.490Z,17.27
2017-08-27T03:48:02.906Z,14.90
2017-08-27T03:50:29.372Z,13.13
2017-08-27T03:52:55.947Z,10.63
2017-08-27T03:55:22.619Z,10.80
2017-08-27T03:57:49.107Z,10.40
2017-08-27T04:00:15.895Z,14.60
2017-08-27T04:02:42.515Z,13.47
2017-08-27T04:05:09.169Z,13.23
2017-08-27T04:07:35.809Z,11.47
2017-08-27T04:10:02.441Z,11.33
2017-08-27T04:12:28.935Z,11.43
2017-08-27T04:14:55.474Z,12.00
2017-08-27T04:17:21.940Z,11.70
2017-08-27T04:19:48.386Z,12.60
2017-08-27T04:22:14.974Z,11.50
2017-08-27T04:24:41.465Z,10.87
2017-08-27T04:27:07.935Z,9.23
2017-08-27T04:29:34.475Z,7.70
2017-08-27T04:32:01.165Z,8.50
2017-08-27T04:34:27.593Z,8.80
2017-08-27T04:36:54.171Z,7.53
2017-08-27T04:39:20.671Z,7.03
2017-08-27T04:41:47.097Z,7.27
2017-08-27T04:44:13.704Z,7.83
2017-08-27T04:46:40.381Z,8.50
2017-08-27T04:49:06.864Z,7.40
2017-08-27T04:51:33.284Z,8.23
2017-08-27T04:53:59.682Z,7.20
2017-08-27T04:56:26.314Z,7.80
2017-08-27T04:58:52.904Z,7.30
2017-08-27T05:01:19.593Z,8.73
2017-08-27T05:03:46.233Z,6.90
2017-08-27T05:06:12.677Z,7.70
2017-08-27T05:08:39.150Z,8.67
2017-08-27T05:11:05.593Z,10.67
2017-08-27T05:13:32.134Z,8.67
2017-08-27T05:15:58.800Z,7.63
2017-08-27T05:18:25.296Z,7.30
2017-08-27T05:20:51.834Z,7.53
2017-08-27T05:23:18.300Z,7.30
2017-08-27T05:25:44.952Z,7.07
2017-08-27T05:28:11.591Z,6.57
2017-08-27T05:30:38.203Z,5.50
2017-08-27T05:33:04.866Z,6.13
2017-08-27T05:35:31.296Z,5.43
2017-08-27T05:37:57.802Z,6.17
2017-08-27T05:40:24.223Z,5.50
2017-08-27T05:42:50.764Z,4.70
2017-08-27T05:45:17.442Z,4.77
2017-08-27T05:47:44.084Z,5.60
2017-08-27T05:50:10.513Z,5.43
2017-08-27T05:52:37.054Z,4.27
2017-08-27T05:55:03.385Z,4.53
2017-08-27T05:57:30.018Z,4.63
2017-08-27T05:59:56.635Z,8.13
2017-08-27T06:02:23.100Z,7.20
2017-08-27T06:04:49.521Z,4.63
2017-08-27T06:07:15.951Z,6.77
2017-08-27T06:09:42.578Z,6.37
2017-08-27T06:12:09.027Z,5.60
2017-08-27T06:14:35.462Z,5.33
2017-08-27T06:17:01.895Z,8.13
2017-08-27T06:19:28.419Z,6.87
2017-08-27T06:21:54.915Z,8.70
2017-08-27T06:24:21.400Z,9.30
2017-08-27T06:26:48.047Z,11.30
2017-08-27T06:29:14.476Z,9.23
2017-08-27T06:31:40.967Z,9.30
2017-08-27T06:34:07.415Z,11.30
2017-08-27T06:36:33.765Z,8.43
2017-08-27T06:39:00.387Z,8.53
2017-08-27T06:41:26.744Z,6.33
2017-08-27T06:43:53.276Z,7.50
2017-08-27T06:46:19.641Z,6.13
2017-08-27T06:48:46.092Z,7.27
2017-08-27T06:51:12.488Z,7.63
2017-08-27T06:53:38.860Z,7.83
2017-08-27T06:56:05.296Z,10.53
2017-08-27T06:58:31.657Z,9.87
2017-08-27T07:00:58.057Z,19.77
2017-08-27T07:03:24.515Z,25.13
2017-08-27T07:05:50.897Z,16.67
2017-08-27T07:08:17.286Z,14.10
2017-08-27T07:10:43.719Z,13.60
2017-08-27T07:13:10.121Z,15.07
2017-08-27T07:15:36.559Z,16.83
2017-08-27T07:18:03.006Z,12.80
2017-08-27T07:20:29.394Z,18.23
2017-08-27T07:22:55.803Z,15.80
2017-08-27T07:25:22.224Z,12.13
2017-08-27T07:27:48.615Z,11.10
2017-08-27T07:30:15.154Z,10.13
2017-08-27T07:32:41.790Z,12.20
2017-08-27T07:35:08.373Z,9.27
2017-08-27T07:37:34.973Z,9.23
2017-08-27T07:40:01.447Z,9.47
2017-08-27T07:42:28.086Z,36.70
2017-08-27T07:44:54.723Z,27.37
2017-08-27T07:47:21.452Z,13.63
2017-08-27T07:49:48.203Z,13.77
2017-08-27T07:52:14.842Z,13.53
2017-08-27T07:54:41.650Z,23.17
2017-08-27T07:57:08.169Z,20.80
2017-08-27T07:59:34.547Z,19.73
2017-08-27T08:02:01.003Z,17.23
2017-08-27T08:04:27.382Z,16.90
2017-08-27T08:06:53.744Z,15.57
2017-08-27T08:09:20.431Z,14.65
2017-08-27T08:11:46.976Z,14.60
2017-08-27T08:14:13.740Z,11.32
2017-08-27T08:16:40.356Z,13.57
2017-08-27T08:19:06.734Z,15.93
2017-08-27T08:21:33.471Z,8.45
2017-08-27T08:24:00.317Z,7.45
2017-08-27T08:26:26.753Z,6.95
2017-08-27T08:28:53.370Z,4.78
2017-08-27T08:31:20.234Z,4.87
2017-08-27T08:33:46.869Z,5.18
2017-08-27T08:36:13.510Z,5.40
2017-08-27T08:38:39.943Z,6.60
2017-08-27T08:41:06.553Z,7.75
2017-08-27T08:43:33.076Z,6.57
2017-08-27T08:45:59.651Z,6.68
2017-08-27T08:48:26.236Z,6.50
2017-08-27T08:50:52.778Z,5.40
2017-08-27T08:53:19.361Z,4.62
2017-08-27T08:55:45.834Z,5.35
2017-08-27T08:58:12.375Z,5.25
2017-08-27T09:00:39.022Z,4.95
2017-08-27T09:03:05.537Z,5.10
2017-08-27T09:05:32.105Z,4.32
2017-08-27T09:07:58.770Z,4.47
2017-08-27T09:10:25.136Z,4.65
2017-08-27T09:12:51.535Z,5.68
2017-08-27T09:15:18.110Z,4.60
2017-08-27T09:17:44.459Z,3.30
2017-08-27T09:20:11.109Z,3.45
2017-08-27T09:22:37.584Z,4.10
2017-08-27T09:25:04.631Z,3.60
2017-08-27T09:27:31.069Z,3.35
2017-08-27T09:29:57.483Z,3.33
2017-08-27T09:32:24.187Z,2.45
2017-08-27T09:34:50.841Z,3.05
2017-08-27T09:37:17.617Z,4.00
2017-08-27T09:39:44.060Z,3.62
2017-08-27T09:42:10.687Z,3.65
2017-08-27T09:44:37.122Z,3.70
2017-08-27T09:47:03.558Z,2.70
2017-08-27T09:49:29.983Z,2.67
2017-08-27T09:51:56.425Z,2.92
2017-08-27T09:54:22.848Z,3.00
2017-08-27T09:56:49.285Z,3.47
2017-08-27T09:59:15.892Z,2.72
2017-08-27T10:01:42.408Z,4.70
2017-08-27T10:04:09.052Z,2.50
2017-08-27T10:06:35.821Z,3.40
2017-08-27T10:09:02.341Z,3.17
2017-08-27T10:11:28.903Z,2.35
2017-08-27T10:13:55.365Z,2.28
2017-08-27T10:16:21.808Z,3.35
2017-08-27T10:18:48.616Z,2.60
2017-08-27T10:21:14.975Z,3.17
2017-08-27T10:23:41.690Z,3.37
2017-08-27T10:26:08.534Z,2.30
2017-08-27T10:28:35.028Z,2.20
2017-08-27T10:31:01.603Z,2.60
2017-08-27T10:33:28.433Z,4.30
2017-08-27T10:35:54.882Z,2.70
2017-08-27T10:38:21.497Z,2.70
2017-08-27T10:40:48.146Z,2.30
2017-08-27T10:43:14.577Z,1.90
2017-08-27T10:45:41.021Z,2.85
2017-08-27T10:48:07.427Z,2.55
2017-08-27T10:50:33.784Z,2.35
2017-08-27T10:53:00.150Z,2.20
2017-08-27T10:55:26.559Z,2.78
2017-08-27T10:57:52.949Z,2.65
2017-08-27T11:00:19.312Z,2.40
2017-08-27T11:02:45.733Z,2.65
2017-08-27T11:05:12.175Z,2.30
2017-08-27T11:07:38.706Z,2.83
2017-08-27T11:10:05.143Z,2.87
2017-08-27T11:12:31.510Z,2.30
2017-08-27T11:14:57.882Z,2.35
2017-08-27T11:17:24.305Z,1.85
2017-08-27T11:19:50.677Z,2.50
2017-08-27T11:22:17.044Z,1.80
2017-08-27T11:24:43.458Z,2.37
2017-08-27T11:27:09.834Z,2.35
2017-08-27T11:29:36.231Z,2.70
2017-08-27T11:32:03.073Z,1.65
2017-08-27T11:34:30.753Z,2.30
2017-08-27T11:36:58.170Z,2.35
2017-08-27T11:39:25.281Z,2.20
2017-08-27T11:41:52.303Z,2.05
2017-08-27T11:44:19.344Z,2.30
2017-08-27T11:46:46.888Z,2.37
2017-08-27T11:49:13.391Z,2.53
2017-08-27T11:51:39.748Z,1.90
2017-08-27T11:54:06.147Z,2.00
2017-08-27T11:56:32.519Z,2.50
2017-08-27T11:58:58.876Z,3.33
2017-08-27T12:01:25.292Z,2.17
2017-08-27T12:03:51.661Z,2.17
2017-08-27T12:06:18.028Z,2.75
2017-08-27T12:08:44.454Z,2.37
2017-08-27T12:11:10.831Z,2.05
2017-08-27T12:13:37.206Z,2.00
2017-08-27T12:16:03.647Z,2.53
2017-08-27T12:18:30.020Z,3.42
2017-08-27T12:20:56.391Z,3.60
2017-08-27T12:23:22.815Z,1.62
2017-08-27T12:25:49.177Z,2.75
2017-08-27T12:28:15.556Z,1.95
2017-08-27T12:30:41.967Z,1.90
2017-08-27T12:33:08.360Z,2.15
2017-08-27T12:35:34.716Z,3.10
2017-08-27T12:38:01.132Z,2.35
2017-08-27T12:40:27.507Z,2.05
2017-08-27T12:42:53.865Z,2.60
2017-08-27T12:45:20.277Z,2.83
2017-08-27T12:47:46.646Z,3.70
2017-08-27T12:50:13.005Z,3.42
2017-08-27T12:52:39.424Z,2.10
2017-08-27T12:55:05.793Z,2.78
2017-08-27T12:57:32.165Z,2.95
2017-08-27T12:59:58.586Z,2.95
2017-08-27T13:02:24.971Z,3.17
2017-08-27T13:04:51.411Z,2.70
2017-08-27T13:07:17.852Z,1.67
2017-08-27T13:09:44.207Z,2.78
2017-08-27T13:12:10.709Z,2.92
2017-08-27T13:14:37.106Z,2.00
2017-08-27T13:17:03.473Z,3.70
2017-08-27T13:19:29.850Z,3.15
2017-08-27T13:21:56.286Z,3.03
2017-08-27T13:24:22.652Z,3.50
2017-08-27T13:26:49.024Z,3.10
2017-08-27T13:29:15.438Z,2.40
2017-08-27T13:31:41.810Z,2.73
2017-08-27T13:34:08.169Z,3.10
2017-08-27T13:36:34.696Z,3.20
2017-08-27T13:39:01.167Z,3.30
2017-08-27T13:41:27.534Z,5.33
2017-08-27T13:43:53.985Z,3.23
2017-08-27T13:46:20.448Z,3.70
2017-08-27T13:48:47.083Z,5.03
2017-08-27T13:51:13.680Z,3.20
2017-08-27T13:53:40.050Z,3.23
2017-08-27T13:56:06.665Z,2.90
2017-08-27T13:58:33.242Z,3.67
2017-08-27T14:00:59.666Z,3.00
2017-08-27T14:03:26.045Z,2.30
2017-08-27T14:05:52.547Z,3.80
2017-08-27T14:08:19.131Z,3.70
2017-08-27T14:10:45.615Z,3.17
2017-08-27T14:13:12.253Z,3.30
2017-08-27T14:15:38.758Z,2.90
2017-08-27T14:18:05.358Z,3.70
2017-08-27T14:20:31.800Z,3.10
2017-08-27T14:22:58.359Z,2.87
2017-08-27T14:25:25.039Z,2.70
2017-08-27T14:27:51.666Z,2.37
2017-08-27T14:30:18.286Z,3.47
2017-08-27T14:32:44.805Z,3.40
2017-08-27T14:35:11.180Z,3.13
2017-08-27T14:37:37.608Z,2.70
2017-08-27T14:40:04.231Z,2.93
2017-08-27T14:42:30.848Z,3.50
2017-08-27T14:44:57.530Z,4.00
2017-08-27T14:47:24.133Z,3.07
2017-08-27T14:49:50.776Z,4.00
2017-08-27T14:52:17.237Z,2.53
2017-08-27T14:54:43.666Z,3.00
2017-08-27T14:57:10.353Z,3.50
2017-08-27T14:59:37.119Z,3.10
2017-08-27T15:02:03.634Z,3.07
2017-08-27T15:04:29.969Z,3.00
2017-08-27T15:06:56.445Z,2.43
2017-08-27T15:09:22.943Z,3.00
2017-08-27T15:11:49.520Z,3.57
2017-08-27T15:14:15.864Z,3.40
2017-08-27T15:16:42.151Z,3.93
2017-08-27T15:19:08.608Z,3.80
2017-08-27T15:21:34.893Z,7.30
2017-08-27T15:24:01.172Z,2.83
2017-08-27T15:26:27.762Z,3.40
2017-08-27T15:28:54.350Z,4.80
2017-08-27T15:31:20.640Z,3.17
2017-08-27T15:33:46.992Z,3.03
2017-08-27T15:36:13.439Z,2.37
2017-08-27T15:38:39.866Z,2.77
2017-08-27T15:41:06.317Z,2.70
2017-08-27T15:43:32.932Z,4.03
2017-08-27T15:45:59.591Z,5.07
2017-08-27T15:48:26.164Z,2.50
2017-08-27T15:50:52.711Z,2.80
2017-08-27T15:53:19.298Z,2.40
2017-08-27T15:55:45.938Z,3.23
2017-08-27T15:58:12.535Z,3.17
2017-08-27T16:00:39.207Z,2.33
2017-08-27T16:03:05.849Z,3.50
2017-08-27T16:05:32.464Z,2.50
2017-08-27T16:07:58.761Z,3.63
2017-08-27T16:10:25.175Z,2.90
2017-08-27T16:12:51.646Z,3.40
2017-08-27T16:15:18.156Z,3.30
2017-08-27T16:17:44.801Z,2.90
2017-08-27T16:20:11.495Z,4.47
2017-08-27T16:22:37.983Z,3.70
2017-08-27T16:25:04.325Z,4.80
2017-08-27T16:27:30.970Z,8.73
2017-08-27T16:29:57.636Z,5.27
2017-08-27T16:32:24.378Z,5.73
2017-08-27T16:34:50.806Z,5.93
2017-08-27T16:37:17.441Z,10.10
2017-08-27T16:39:43.890Z,4.93
2017-08-27T16:42:10.499Z,4.40
2017-08-27T16:44:37.141Z,5.60
2017-08-27T16:47:03.659Z,5.30
2017-08-27T16:49:29.951Z,5.67
2017-08-27T16:51:56.256Z,6.07
2017-08-27T16:54:22.837Z,4.90
2017-08-27T16:56:49.324Z,5.20
2017-08-27T16:59:15.743Z,4.53
2017-08-27T17:01:42.236Z,4.43
2017-08-27T17:04:08.616Z,4.97
2017-08-27T17:06:34.887Z,4.40
2017-08-27T17:09:01.314Z,5.03
2017-08-27T17:11:27.641Z,4.60
2017-08-27T17:13:53.945Z,5.40
2017-08-27T17:16:20.387Z,4.13
2017-08-27T17:18:46.711Z,6.03
2017-08-27T17:21:13.046Z,6.33
2017-08-27T17:23:39.477Z,6.50
2017-08-27T17:26:05.908Z,8.57
2017-08-27T17:28:32.343Z,6.00
2017-08-27T17:30:58.778Z,6.20
2017-08-27T17:33:25.266Z,4.57
2017-08-27T17:35:51.546Z,6.40
2017-08-27T17:38:18.269Z,6.50
2017-08-27T17:40:44.548Z,9.60
2017-08-27T17:43:10.931Z,7.40
2017-08-27T17:45:37.377Z,5.70
2017-08-27T17:48:03.801Z,5.10
2017-08-27T17:50:30.448Z,5.80
2017-08-27T17:52:57.092Z,9.80
2017-08-27T17:55:23.692Z,7.50
2017-08-27T17:57:49.957Z,8.30
2017-08-27T18:00:16.349Z,6.30
2017-08-27T18:02:42.995Z,5.90
2017-08-27T18:05:09.663Z,6.43
2017-08-27T18:07:36.003Z,8.33
2017-08-27T18:10:02.470Z,7.90
2017-08-27T18:12:29.139Z,7.10
2017-08-27T18:14:55.600Z,6.30
2017-08-27T18:17:22.041Z,7.03
2017-08-27T18:19:48.471Z,6.60
2017-08-27T18:22:15.109Z,6.87
2017-08-27T18:24:41.725Z,5.47
2017-08-27T18:27:08.021Z,6.00
2017-08-27T18:29:34.438Z,6.20
2017-08-27T18:32:00.733Z,6.00
2017-08-27T18:34:27.070Z,6.00
2017-08-27T18:36:53.402Z,6.77
2017-08-27T18:39:19.877Z,6.47
2017-08-27T18:41:46.365Z,6.93
2017-08-27T18:44:12.761Z,6.97
2017-08-27T18:46:39.200Z,6.63
2017-08-27T18:49:05.481Z,8.30
2017-08-27T18:51:31.886Z,6.63
2017-08-27T18:53:58.164Z,7.23
2017-08-27T18:56:24.569Z,4.20
2017-08-27T18:58:51.017Z,5.40
2017-08-27T19:01:17.490Z,6.20
2017-08-27T19:03:44.022Z,5.93
2017-08-27T19:06:10.640Z,5.47
2017-08-27T19:08:36.929Z,6.33
2017-08-27T19:11:03.251Z,5.33
2017-08-27T19:13:29.843Z,7.13
2017-08-27T19:15:56.288Z,5.57
2017-08-27T19:18:22.689Z,4.60
2017-08-27T19:20:49.026Z,5.47
2017-08-27T19:23:15.321Z,5.27
2017-08-27T19:25:41.927Z,6.97
2017-08-27T19:28:08.567Z,5.33
2017-08-27T19:30:35.212Z,5.00
2017-08-27T19:33:01.492Z,4.80
2017-08-27T19:35:27.903Z,3.90
2017-08-27T19:37:54.195Z,4.60
2017-08-27T19:40:20.605Z,4.30
2017-08-27T19:42:46.993Z,5.07
2017-08-27T19:45:13.610Z,5.23
2017-08-27T19:47:40.070Z,4.80
2017-08-27T19:50:06.498Z,4.50
2017-08-27T19:52:32.933Z,4.40
2017-08-27T19:54:59.571Z,5.33
2017-08-27T19:57:26.023Z,4.80
2017-08-27T19:59:52.438Z,6.63
2017-08-27T20:02:18.764Z,5.67
2017-08-27T20:04:45.149Z,5.30
2017-08-27T20:07:11.537Z,4.63
2017-08-27T20:09:37.810Z,4.67
2017-08-27T20:12:04.578Z,4.70
2017-08-27T20:14:31.029Z,3.90
2017-08-27T20:16:57.456Z,5.87
2017-08-27T20:19:24.086Z,4.40
2017-08-27T20:21:50.539Z,4.20
2017-08-27T20:24:17.179Z,4.30
2017-08-27T20:26:43.614Z,4.70
2017-08-27T20:29:10.095Z,4.40
2017-08-27T20:31:36.468Z,4.47
2017-08-27T20:34:02.911Z,4.93
2017-08-27T20:36:29.340Z,4.47
2017-08-27T20:38:55.984Z,4.47
2017-08-27T20:41:22.626Z,4.53
2017-08-27T20:43:48.924Z,6.03
2017-08-27T20:46:15.283Z,4.23
2017-08-27T20:48:41.704Z,5.50
2017-08-27T20:51:08.353Z,5.17
2017-08-27T20:53:34.790Z,4.80
2017-08-27T20:56:01.386Z,5.60
2017-08-27T20:58:27.852Z,5.17
2017-08-27T21:00:54.492Z,4.80
2017-08-27T21:03:20.933Z,4.87
2017-08-27T21:05:47.366Z,4.90
2017-08-27T21:08:13.971Z,6.27
2017-08-27T21:10:40.425Z,4.60
2017-08-27T21:13:07.054Z,4.10
2017-08-27T21:15:33.492Z,5.20
2017-08-27T21:17:59.857Z,4.17
2017-08-27T21:20:26.377Z,4.77
2017-08-27T21:22:52.799Z,4.60
2017-08-27T21:25:19.448Z,5.00
2017-08-27T21:27:46.057Z,5.23
2017-08-27T21:30:12.700Z,5.03
2017-08-27T21:32:39.153Z,6.00
2017-08-27T21:35:05.636Z,4.47
2017-08-27T21:37:32.080Z,6.23
2017-08-27T21:39:58.454Z,4.87
2017-08-27T21:42:24.989Z,5.70
2017-08-27T21:44:51.309Z,6.10
2017-08-27T21:47:17.941Z,5.33
2017-08-27T21:49:44.226Z,5.57
2017-08-27T21:52:10.618Z,4.60
2017-08-27T21:54:37.247Z,5.00
2017-08-27T21:57:03.685Z,5.23
2017-08-27T21:59:30.335Z,5.50
2017-08-27T22:01:56.952Z,4.93
2017-08-27T22:04:23.612Z,5.37
2017-08-27T22:06:50.231Z,5.27
2017-08-27T22:09:16.881Z,4.57
2017-08-27T22:11:43.485Z,5.10
2017-08-27T22:14:10.132Z,5.23
2017-08-27T22:16:36.803Z,5.00
2017-08-27T22:19:03.414Z,4.60
2017-08-27T22:21:29.795Z,4.60
2017-08-27T22:23:56.303Z,5.47
2017-08-27T22:26:22.740Z,5.77
2017-08-27T22:28:49.374Z,4.60
2017-08-27T22:31:15.810Z,5.77
2017-08-27T22:33:42.443Z,5.67
2017-08-27T22:36:08.881Z,3.97
2017-08-27T22:38:35.501Z,5.93
2017-08-27T22:41:02.115Z,3.90
2017-08-27T22:43:28.735Z,4.80
2017-08-27T22:45:55.429Z,5.40
2017-08-27T22:48:21.731Z,5.00
2017-08-27T22:50:48.296Z,5.73
2017-08-27T22:53:14.807Z,6.37
2017-08-27T22:55:41.154Z,6.80
2017-08-27T22:58:07.600Z,21.37
2017-08-27T23:00:34.031Z,8.33
2017-08-27T23:03:00.668Z,5.70
2017-08-27T23:05:27.305Z,6.10
2017-08-27T23:07:53.935Z,5.60
2017-08-27T23:10:20.588Z,5.30
2017-08-27T23:12:47.223Z,5.10
2017-08-27T23:15:13.650Z,6.00
2017-08-27T23:17:40.275Z,6.67
2017-08-27T23:20:06.731Z,5.13
2017-08-27T23:22:33.211Z,4.23
2017-08-27T23:24:59.583Z,4.77
2017-08-27T23:27:26.234Z,5.20
2017-08-27T23:29:52.666Z,5.30
2017-08-27T23:32:19.275Z,5.70
2017-08-27T23:34:45.741Z,5.13
2017-08-27T23:37:12.358Z,6.33
2017-08-27T23:39:38.809Z,5.80
2017-08-27T23:42:05.449Z,5.47
2017-08-27T23:44:31.885Z,5.03
2017-08-27T23:46:58.165Z,5.10
2017-08-27T23:49:24.695Z,5.53
2017-08-27T23:51:51.166Z,4.73
2017-08-27T23:54:17.820Z,6.33
2017-08-27T23:56:44.458Z,5.87
2017-08-27T23:59:10.941Z,6.30
